sensor_id;sensor_type;location;lat;lon;timestamp;P1;durP1;ratioP1;P2;durP2;ratioP2
48875;SDS011;34689;51.644;5.618;2023-02-21T00:01:33;32.53;;;15.10;;
48875;SDS011;34689;51.644;5.618;2023-02-21T00:04:17;35.85;;;14.40;;
48875;SDS011;34689;51.644;5.618;2023-02-21T00:07:02;40.42;;;15.43;;
48875;SDS011;34689;51.644;5.618;2023-02-21T00:09:46;50.63;;;20.55;;
48875;SDS011;34689;51.644;5.618;2023-02-21T00:12:31;48.40;;;22.50;;
48875;SDS011;34689;51.644;5.618;2023-02-21T00:15:15;39.83;;;16.98;;
48875;SDS011;34689;51.644;5.618;2023-02-21T00:17:59;49.15;;;21.25;;
48875;SDS011;34689;51.644;5.618;2023-02-21T00:20:43;47.90;;;20.05;;
48875;SDS011;34689;51.644;5.618;2023-02-21T00:23:28;48.03;;;21.98;;
48875;SDS011;34689;51.644;5.618;2023-02-21T00:26:17;46.83;;;19.50;;
48875;SDS011;34689;51.644;5.618;2023-02-21T00:29:04;43.03;;;17.85;;
48875;SDS011;34689;51.644;5.618;2023-02-21T00:31:49;42.22;;;17.05;;
48875;SDS011;34689;51.644;5.618;2023-02-21T00:34:33;42.67;;;16.83;;
48875;SDS011;34689;51.644;5.618;2023-02-21T00:37:17;45.30;;;16.90;;
48875;SDS011;34689;51.644;5.618;2023-02-21T00:40:01;31.13;;;15.10;;
48875;SDS011;34689;51.644;5.618;2023-02-21T00:42:46;40.92;;;15.77;;
48875;SDS011;34689;51.644;5.618;2023-02-21T00:45:30;39.90;;;16.67;;
48875;SDS011;34689;51.644;5.618;2023-02-21T00:48:21;43.15;;;18.00;;
48875;SDS011;34689;51.644;5.618;2023-02-21T00:51:06;56.03;;;19.85;;
48875;SDS011;34689;51.644;5.618;2023-02-21T00:53:50;57.35;;;22.13;;
48875;SDS011;34689;51.644;5.618;2023-02-21T00:56:34;46.83;;;18.63;;
48875;SDS011;34689;51.644;5.618;2023-02-21T00:59:18;37.45;;;16.48;;
48875;SDS011;34689;51.644;5.618;2023-02-21T01:02:03;33.60;;;16.70;;
48875;SDS011;34689;51.644;5.618;2023-02-21T01:04:47;43.03;;;18.75;;
48875;SDS011;34689;51.644;5.618;2023-02-21T01:07:31;45.92;;;18.70;;
48875;SDS011;34689;51.644;5.618;2023-02-21T01:10:15;38.15;;;17.52;;
48875;SDS011;34689;51.644;5.618;2023-02-21T01:13:00;41.10;;;18.17;;
48875;SDS011;34689;51.644;5.618;2023-02-21T01:15:44;43.17;;;18.35;;
48875;SDS011;34689;51.644;5.618;2023-02-21T01:18:28;41.80;;;16.80;;
48875;SDS011;34689;51.644;5.618;2023-02-21T01:21:13;53.70;;;20.20;;
48875;SDS011;34689;51.644;5.618;2023-02-21T01:23:59;37.10;;;16.10;;
48875;SDS011;34689;51.644;5.618;2023-02-21T01:26:43;56.03;;;22.60;;
48875;SDS011;34689;51.644;5.618;2023-02-21T01:29:28;41.63;;;17.25;;
48875;SDS011;34689;51.644;5.618;2023-02-21T01:32:12;53.33;;;19.73;;
48875;SDS011;34689;51.644;5.618;2023-02-21T01:34:57;58.83;;;22.20;;
48875;SDS011;34689;51.644;5.618;2023-02-21T01:37:41;43.13;;;17.00;;
48875;SDS011;34689;51.644;5.618;2023-02-21T01:40:25;50.60;;;19.60;;
48875;SDS011;34689;51.644;5.618;2023-02-21T01:43:14;66.43;;;22.90;;
48875;SDS011;34689;51.644;5.618;2023-02-21T01:46:00;66.85;;;27.08;;
48875;SDS011;34689;51.644;5.618;2023-02-21T01:48:45;51.15;;;20.92;;
48875;SDS011;34689;51.644;5.618;2023-02-21T01:51:32;57.55;;;21.88;;
48875;SDS011;34689;51.644;5.618;2023-02-21T01:54:19;62.08;;;25.65;;
48875;SDS011;34689;51.644;5.618;2023-02-21T01:57:05;65.30;;;24.52;;
48875;SDS011;34689;51.644;5.618;2023-02-21T01:59:52;48.30;;;17.45;;
48875;SDS011;34689;51.644;5.618;2023-02-21T02:02:44;44.35;;;18.23;;
48875;SDS011;34689;51.644;5.618;2023-02-21T02:05:47;45.72;;;18.67;;
48875;SDS011;34689;51.644;5.618;2023-02-21T02:08:35;50.63;;;20.38;;
48875;SDS011;34689;51.644;5.618;2023-02-21T02:11:42;47.53;;;20.35;;
48875;SDS011;34689;51.644;5.618;2023-02-21T02:17:13;41.30;;;16.95;;
48875;SDS011;34689;51.644;5.618;2023-02-21T02:31:38;38.40;;;15.68;;
48875;SDS011;34689;51.644;5.618;2023-02-21T02:34:43;29.95;;;13.38;;
48875;SDS011;34689;51.644;5.618;2023-02-21T02:37:34;41.53;;;16.70;;
48875;SDS011;34689;51.644;5.618;2023-02-21T02:46:07;39.40;;;15.02;;
48875;SDS011;34689;51.644;5.618;2023-02-21T02:48:45;44.83;;;17.05;;
48875;SDS011;34689;51.644;5.618;2023-02-21T02:51:19;43.35;;;16.13;;
48875;SDS011;34689;51.644;5.618;2023-02-21T02:53:46;33.67;;;12.68;;
48875;SDS011;34689;51.644;5.618;2023-02-21T02:56:14;32.97;;;13.18;;
48875;SDS011;34689;51.644;5.618;2023-02-21T02:58:49;44.53;;;16.73;;
48875;SDS011;34689;51.644;5.618;2023-02-21T03:04:33;28.40;;;12.27;;
48875;SDS011;34689;51.644;5.618;2023-02-21T03:15:37;34.97;;;14.07;;
48875;SDS011;34689;51.644;5.618;2023-02-21T03:20:49;31.08;;;12.98;;
48875;SDS011;34689;51.644;5.618;2023-02-21T03:23:20;30.15;;;12.07;;
48875;SDS011;34689;51.644;5.618;2023-02-21T03:25:49;35.45;;;13.13;;
48875;SDS011;34689;51.644;5.618;2023-02-21T03:28:16;38.97;;;13.95;;
48875;SDS011;34689;51.644;5.618;2023-02-21T03:30:43;38.88;;;15.68;;
48875;SDS011;34689;51.644;5.618;2023-02-21T03:33:10;55.50;;;18.50;;
48875;SDS011;34689;51.644;5.618;2023-02-21T03:35:36;46.60;;;17.20;;
48875;SDS011;34689;51.644;5.618;2023-02-21T03:38:01;33.53;;;14.40;;
48875;SDS011;34689;51.644;5.618;2023-02-21T03:40:29;28.33;;;11.82;;
48875;SDS011;34689;51.644;5.618;2023-02-21T03:42:57;34.33;;;13.07;;
48875;SDS011;34689;51.644;5.618;2023-02-21T03:45:24;37.28;;;13.82;;
48875;SDS011;34689;51.644;5.618;2023-02-21T03:47:49;33.25;;;12.90;;
48875;SDS011;34689;51.644;5.618;2023-02-21T03:50:15;38.75;;;15.63;;
48875;SDS011;34689;51.644;5.618;2023-02-21T03:52:41;40.70;;;16.33;;
48875;SDS011;34689;51.644;5.618;2023-02-21T03:55:07;37.35;;;15.27;;
48875;SDS011;34689;51.644;5.618;2023-02-21T03:57:33;35.42;;;13.95;;
48875;SDS011;34689;51.644;5.618;2023-02-21T03:59:59;30.33;;;12.23;;
48875;SDS011;34689;51.644;5.618;2023-02-21T04:02:25;38.40;;;13.60;;
48875;SDS011;34689;51.644;5.618;2023-02-21T04:04:51;39.65;;;14.43;;
48875;SDS011;34689;51.644;5.618;2023-02-21T04:07:18;36.28;;;14.18;;
48875;SDS011;34689;51.644;5.618;2023-02-21T04:09:45;36.47;;;13.63;;
48875;SDS011;34689;51.644;5.618;2023-02-21T04:12:11;42.45;;;16.20;;
48875;SDS011;34689;51.644;5.618;2023-02-21T04:14:37;35.55;;;13.55;;
48875;SDS011;34689;51.644;5.618;2023-02-21T04:17:05;39.00;;;14.85;;
48875;SDS011;34689;51.644;5.618;2023-02-21T04:19:31;34.03;;;14.73;;
48875;SDS011;34689;51.644;5.618;2023-02-21T04:21:59;41.50;;;14.90;;
48875;SDS011;34689;51.644;5.618;2023-02-21T04:24:25;37.38;;;14.68;;
48875;SDS011;34689;51.644;5.618;2023-02-21T04:26:51;50.28;;;15.82;;
48875;SDS011;34689;51.644;5.618;2023-02-21T04:29:16;40.72;;;14.43;;
48875;SDS011;34689;51.644;5.618;2023-02-21T04:31:42;40.20;;;14.55;;
48875;SDS011;34689;51.644;5.618;2023-02-21T04:34:08;41.08;;;13.52;;
48875;SDS011;34689;51.644;5.618;2023-02-21T04:36:33;41.83;;;14.52;;
48875;SDS011;34689;51.644;5.618;2023-02-21T04:39:01;45.55;;;15.13;;
48875;SDS011;34689;51.644;5.618;2023-02-21T04:41:27;40.42;;;14.90;;
48875;SDS011;34689;51.644;5.618;2023-02-21T04:43:52;33.40;;;12.02;;
48875;SDS011;34689;51.644;5.618;2023-02-21T04:46:18;36.05;;;12.45;;
48875;SDS011;34689;51.644;5.618;2023-02-21T04:48:48;32.42;;;12.88;;
48875;SDS011;34689;51.644;5.618;2023-02-21T04:51:15;26.38;;;10.75;;
48875;SDS011;34689;51.644;5.618;2023-02-21T04:53:43;50.88;;;16.40;;
48875;SDS011;34689;51.644;5.618;2023-02-21T04:56:11;38.83;;;13.60;;
48875;SDS011;34689;51.644;5.618;2023-02-21T04:58:37;35.90;;;14.10;;
48875;SDS011;34689;51.644;5.618;2023-02-21T05:01:03;35.45;;;12.52;;
48875;SDS011;34689;51.644;5.618;2023-02-21T05:03:29;39.88;;;15.60;;
48875;SDS011;34689;51.644;5.618;2023-02-21T05:05:57;49.35;;;17.05;;
48875;SDS011;34689;51.644;5.618;2023-02-21T05:08:23;43.83;;;15.73;;
48875;SDS011;34689;51.644;5.618;2023-02-21T05:10:49;35.88;;;13.90;;
48875;SDS011;34689;51.644;5.618;2023-02-21T05:13:15;37.35;;;13.35;;
48875;SDS011;34689;51.644;5.618;2023-02-21T05:15:41;39.65;;;12.73;;
48875;SDS011;34689;51.644;5.618;2023-02-21T05:18:07;43.53;;;15.80;;
48875;SDS011;34689;51.644;5.618;2023-02-21T05:20:32;59.70;;;18.77;;
48875;SDS011;34689;51.644;5.618;2023-02-21T05:22:58;41.10;;;15.27;;
48875;SDS011;34689;51.644;5.618;2023-02-21T05:25:24;39.45;;;13.02;;
48875;SDS011;34689;51.644;5.618;2023-02-21T05:27:50;42.55;;;13.55;;
48875;SDS011;34689;51.644;5.618;2023-02-21T05:30:17;42.97;;;15.20;;
48875;SDS011;34689;51.644;5.618;2023-02-21T05:32:44;39.00;;;13.48;;
48875;SDS011;34689;51.644;5.618;2023-02-21T05:35:10;42.13;;;14.15;;
48875;SDS011;34689;51.644;5.618;2023-02-21T05:37:37;45.75;;;15.50;;
48875;SDS011;34689;51.644;5.618;2023-02-21T05:40:03;45.10;;;15.27;;
48875;SDS011;34689;51.644;5.618;2023-02-21T05:42:30;42.22;;;13.70;;
48875;SDS011;34689;51.644;5.618;2023-02-21T05:44:56;43.03;;;13.85;;
48875;SDS011;34689;51.644;5.618;2023-02-21T05:47:23;42.45;;;13.40;;
48875;SDS011;34689;51.644;5.618;2023-02-21T05:49:48;42.30;;;14.32;;
48875;SDS011;34689;51.644;5.618;2023-02-21T05:52:15;45.08;;;13.93;;
48875;SDS011;34689;51.644;5.618;2023-02-21T05:54:41;50.28;;;16.75;;
48875;SDS011;34689;51.644;5.618;2023-02-21T05:57:08;57.40;;;17.45;;
48875;SDS011;34689;51.644;5.618;2023-02-21T05:59:34;49.20;;;15.35;;
48875;SDS011;34689;51.644;5.618;2023-02-21T06:02:01;51.78;;;14.38;;
48875;SDS011;34689;51.644;5.618;2023-02-21T06:04:28;38.42;;;13.15;;
48875;SDS011;34689;51.644;5.618;2023-02-21T06:06:53;53.50;;;17.08;;
48875;SDS011;34689;51.644;5.618;2023-02-21T06:09:19;49.83;;;16.35;;
48875;SDS011;34689;51.644;5.618;2023-02-21T06:11:45;54.35;;;17.45;;
48875;SDS011;34689;51.644;5.618;2023-02-21T06:14:15;43.95;;;14.38;;
48875;SDS011;34689;51.644;5.618;2023-02-21T06:16:42;45.95;;;14.63;;
48875;SDS011;34689;51.644;5.618;2023-02-21T06:19:09;47.33;;;15.95;;
48875;SDS011;34689;51.644;5.618;2023-02-21T06:21:36;50.05;;;15.80;;
48875;SDS011;34689;51.644;5.618;2023-02-21T06:24:04;43.90;;;13.15;;
48875;SDS011;34689;51.644;5.618;2023-02-21T06:26:30;52.72;;;15.27;;
48875;SDS011;34689;51.644;5.618;2023-02-21T06:28:56;42.95;;;13.68;;
48875;SDS011;34689;51.644;5.618;2023-02-21T06:31:23;51.10;;;16.48;;
48875;SDS011;34689;51.644;5.618;2023-02-21T06:33:49;36.63;;;12.75;;
48875;SDS011;34689;51.644;5.618;2023-02-21T06:36:19;33.72;;;11.38;;
48875;SDS011;34689;51.644;5.618;2023-02-21T06:38:48;35.92;;;10.52;;
48875;SDS011;34689;51.644;5.618;2023-02-21T06:41:19;36.17;;;12.82;;
48875;SDS011;34689;51.644;5.618;2023-02-21T06:43:51;42.63;;;14.55;;
48875;SDS011;34689;51.644;5.618;2023-02-21T06:46:18;44.08;;;14.02;;
48875;SDS011;34689;51.644;5.618;2023-02-21T06:48:45;39.63;;;11.95;;
48875;SDS011;34689;51.644;5.618;2023-02-21T06:51:11;52.17;;;15.45;;
48875;SDS011;34689;51.644;5.618;2023-02-21T06:53:39;33.72;;;11.95;;
48875;SDS011;34689;51.644;5.618;2023-02-21T06:56:05;37.47;;;11.88;;
48875;SDS011;34689;51.644;5.618;2023-02-21T06:58:31;30.15;;;9.82;;
48875;SDS011;34689;51.644;5.618;2023-02-21T07:00:57;44.20;;;13.90;;
48875;SDS011;34689;51.644;5.618;2023-02-21T07:03:23;36.40;;;11.80;;
48875;SDS011;34689;51.644;5.618;2023-02-21T07:05:49;43.28;;;12.35;;
48875;SDS011;34689;51.644;5.618;2023-02-21T07:08:14;28.85;;;9.48;;
48875;SDS011;34689;51.644;5.618;2023-02-21T07:10:40;36.25;;;11.45;;
48875;SDS011;34689;51.644;5.618;2023-02-21T07:13:06;27.58;;;10.25;;
48875;SDS011;34689;51.644;5.618;2023-02-21T07:15:31;24.42;;;9.35;;
48875;SDS011;34689;51.644;5.618;2023-02-21T07:17:57;27.17;;;8.95;;
48875;SDS011;34689;51.644;5.618;2023-02-21T07:20:23;31.00;;;10.80;;
48875;SDS011;34689;51.644;5.618;2023-02-21T07:22:51;26.70;;;9.27;;
48875;SDS011;34689;51.644;5.618;2023-02-21T07:25:17;48.67;;;14.95;;
48875;SDS011;34689;51.644;5.618;2023-02-21T07:27:45;34.53;;;12.30;;
48875;SDS011;34689;51.644;5.618;2023-02-21T07:30:12;39.40;;;12.43;;
48875;SDS011;34689;51.644;5.618;2023-02-21T07:32:38;38.38;;;13.18;;
48875;SDS011;34689;51.644;5.618;2023-02-21T07:35:04;32.83;;;11.30;;
48875;SDS011;34689;51.644;5.618;2023-02-21T07:37:30;32.58;;;10.40;;
48875;SDS011;34689;51.644;5.618;2023-02-21T07:39:56;29.90;;;11.20;;
48875;SDS011;34689;51.644;5.618;2023-02-21T07:42:21;39.03;;;12.05;;
48875;SDS011;34689;51.644;5.618;2023-02-21T07:44:47;34.58;;;12.05;;
48875;SDS011;34689;51.644;5.618;2023-02-21T07:47:13;28.00;;;9.93;;
48875;SDS011;34689;51.644;5.618;2023-02-21T07:49:41;21.35;;;9.00;;
48875;SDS011;34689;51.644;5.618;2023-02-21T07:52:07;27.40;;;10.35;;
48875;SDS011;34689;51.644;5.618;2023-02-21T07:54:32;28.08;;;10.45;;
48875;SDS011;34689;51.644;5.618;2023-02-21T07:56:58;20.70;;;8.90;;
48875;SDS011;34689;51.644;5.618;2023-02-21T07:59:24;22.73;;;7.80;;
48875;SDS011;34689;51.644;5.618;2023-02-21T08:01:49;21.95;;;6.90;;
48875;SDS011;34689;51.644;5.618;2023-02-21T08:04:15;16.00;;;6.20;;
48875;SDS011;34689;51.644;5.618;2023-02-21T08:06:45;18.67;;;5.97;;
48875;SDS011;34689;51.644;5.618;2023-02-21T08:09:12;25.10;;;8.90;;
48875;SDS011;34689;51.644;5.618;2023-02-21T08:11:37;15.90;;;6.05;;
48875;SDS011;34689;51.644;5.618;2023-02-21T08:14:04;21.88;;;7.40;;
48875;SDS011;34689;51.644;5.618;2023-02-21T08:16:30;17.75;;;7.25;;
48875;SDS011;34689;51.644;5.618;2023-02-21T08:18:56;16.95;;;6.10;;
48875;SDS011;34689;51.644;5.618;2023-02-21T08:21:22;16.88;;;7.15;;
48875;SDS011;34689;51.644;5.618;2023-02-21T08:23:50;22.70;;;7.65;;
48875;SDS011;34689;51.644;5.618;2023-02-21T08:26:17;15.60;;;5.85;;
48875;SDS011;34689;51.644;5.618;2023-02-21T08:28:43;18.10;;;7.43;;
48875;SDS011;34689;51.644;5.618;2023-02-21T08:31:10;20.70;;;7.78;;
48875;SDS011;34689;51.644;5.618;2023-02-21T08:33:36;19.00;;;6.20;;
48875;SDS011;34689;51.644;5.618;2023-02-21T08:36:02;15.50;;;6.05;;
48875;SDS011;34689;51.644;5.618;2023-02-21T08:38:28;17.83;;;5.93;;
48875;SDS011;34689;51.644;5.618;2023-02-21T08:40:54;16.90;;;6.05;;
48875;SDS011;34689;51.644;5.618;2023-02-21T08:43:19;17.55;;;6.22;;
48875;SDS011;34689;51.644;5.618;2023-02-21T08:45:45;19.92;;;7.25;;
48875;SDS011;34689;51.644;5.618;2023-02-21T08:48:11;18.88;;;5.88;;
48875;SDS011;34689;51.644;5.618;2023-02-21T08:50:37;18.63;;;6.70;;
48875;SDS011;34689;51.644;5.618;2023-02-21T08:53:03;18.90;;;7.30;;
48875;SDS011;34689;51.644;5.618;2023-02-21T08:55:29;22.30;;;7.13;;
48875;SDS011;34689;51.644;5.618;2023-02-21T08:57:54;16.30;;;5.03;;
48875;SDS011;34689;51.644;5.618;2023-02-21T09:00:21;24.92;;;7.35;;
48875;SDS011;34689;51.644;5.618;2023-02-21T09:02:49;17.05;;;6.30;;
48875;SDS011;34689;51.644;5.618;2023-02-21T09:05:17;14.15;;;5.07;;
48875;SDS011;34689;51.644;5.618;2023-02-21T09:07:48;13.43;;;5.97;;
48875;SDS011;34689;51.644;5.618;2023-02-21T09:10:16;16.13;;;6.38;;
48875;SDS011;34689;51.644;5.618;2023-02-21T09:12:42;18.05;;;5.35;;
48875;SDS011;34689;51.644;5.618;2023-02-21T09:15:08;13.95;;;5.43;;
48875;SDS011;34689;51.644;5.618;2023-02-21T09:17:34;15.05;;;6.18;;
48875;SDS011;34689;51.644;5.618;2023-02-21T09:20:01;15.50;;;5.72;;
48875;SDS011;34689;51.644;5.618;2023-02-21T09:22:30;13.63;;;5.80;;
48875;SDS011;34689;51.644;5.618;2023-02-21T09:24:56;13.80;;;4.82;;
48875;SDS011;34689;51.644;5.618;2023-02-21T09:27:22;14.43;;;4.57;;
48875;SDS011;34689;51.644;5.618;2023-02-21T09:30:01;14.60;;;4.50;;
48875;SDS011;34689;51.644;5.618;2023-02-21T09:32:31;11.80;;;4.88;;
48875;SDS011;34689;51.644;5.618;2023-02-21T09:34:57;15.27;;;5.60;;
48875;SDS011;34689;51.644;5.618;2023-02-21T09:37:23;10.70;;;4.07;;
48875;SDS011;34689;51.644;5.618;2023-02-21T09:39:49;9.98;;;4.53;;
48875;SDS011;34689;51.644;5.618;2023-02-21T09:42:15;9.63;;;3.90;;
48875;SDS011;34689;51.644;5.618;2023-02-21T09:44:42;14.15;;;4.35;;
48875;SDS011;34689;51.644;5.618;2023-02-21T09:47:09;17.00;;;5.70;;
48875;SDS011;34689;51.644;5.618;2023-02-21T09:49:43;12.93;;;4.68;;
48875;SDS011;34689;51.644;5.618;2023-02-21T09:54:56;16.73;;;6.13;;
48875;SDS011;34689;51.644;5.618;2023-02-21T09:57:24;10.50;;;4.43;;
48875;SDS011;34689;51.644;5.618;2023-02-21T09:59:50;10.85;;;4.65;;
48875;SDS011;34689;51.644;5.618;2023-02-21T10:10:13;15.23;;;4.90;;
48875;SDS011;34689;51.644;5.618;2023-02-21T10:13:26;10.25;;;4.85;;
48875;SDS011;34689;51.644;5.618;2023-02-21T10:16:31;14.82;;;5.65;;
48875;SDS011;34689;51.644;5.618;2023-02-21T10:21:36;11.00;;;4.53;;
48875;SDS011;34689;51.644;5.618;2023-02-21T10:24:10;10.20;;;4.30;;
48875;SDS011;34689;51.644;5.618;2023-02-21T10:26:43;12.13;;;5.00;;
48875;SDS011;34689;51.644;5.618;2023-02-21T10:29:21;11.30;;;4.18;;
48875;SDS011;34689;51.644;5.618;2023-02-21T10:31:51;13.48;;;5.07;;
48875;SDS011;34689;51.644;5.618;2023-02-21T10:34:25;11.25;;;5.43;;
48875;SDS011;34689;51.644;5.618;2023-02-21T10:36:57;14.43;;;4.78;;
48875;SDS011;34689;51.644;5.618;2023-02-21T10:39:39;10.60;;;4.32;;
48875;SDS011;34689;51.644;5.618;2023-02-21T10:42:10;12.95;;;4.53;;
48875;SDS011;34689;51.644;5.618;2023-02-21T10:44:42;13.95;;;4.97;;
48875;SDS011;34689;51.644;5.618;2023-02-21T10:47:18;12.45;;;4.80;;
48875;SDS011;34689;51.644;5.618;2023-02-21T10:49:57;12.98;;;5.22;;
48875;SDS011;34689;51.644;5.618;2023-02-21T10:52:25;11.65;;;4.47;;
48875;SDS011;34689;51.644;5.618;2023-02-21T10:55:01;9.52;;;4.55;;
48875;SDS011;34689;51.644;5.618;2023-02-21T10:57:44;15.30;;;6.95;;
48875;SDS011;34689;51.644;5.618;2023-02-21T11:00:20;14.73;;;6.10;;
48875;SDS011;34689;51.644;5.618;2023-02-21T11:02:49;8.07;;;3.65;;
48875;SDS011;34689;51.644;5.618;2023-02-21T11:05:20;9.63;;;3.90;;
48875;SDS011;34689;51.644;5.618;2023-02-21T11:08:21;11.20;;;4.25;;
48875;SDS011;34689;51.644;5.618;2023-02-21T11:10:43;11.85;;;4.53;;
48875;SDS011;34689;51.644;5.618;2023-02-21T11:13:13;16.08;;;5.50;;
48875;SDS011;34689;51.644;5.618;2023-02-21T11:15:41;10.18;;;4.32;;
48875;SDS011;34689;51.644;5.618;2023-02-21T11:18:12;10.55;;;4.30;;
48875;SDS011;34689;51.644;5.618;2023-02-21T11:20:43;8.90;;;4.07;;
48875;SDS011;34689;51.644;5.618;2023-02-21T11:23:17;9.65;;;4.95;;
48875;SDS011;34689;51.644;5.618;2023-02-21T11:25:46;17.23;;;6.93;;
48875;SDS011;34689;51.644;5.618;2023-02-21T11:30:48;10.98;;;4.53;;
48875;SDS011;34689;51.644;5.618;2023-02-21T11:33:36;14.93;;;4.60;;
48875;SDS011;34689;51.644;5.618;2023-02-21T11:36:16;9.25;;;4.70;;
48875;SDS011;34689;51.644;5.618;2023-02-21T11:38:59;14.15;;;5.57;;
48875;SDS011;34689;51.644;5.618;2023-02-21T11:41:29;17.17;;;5.85;;
48875;SDS011;34689;51.644;5.618;2023-02-21T11:43:59;10.82;;;4.80;;
48875;SDS011;34689;51.644;5.618;2023-02-21T11:46:45;10.80;;;5.07;;
48875;SDS011;34689;51.644;5.618;2023-02-21T11:52:01;16.05;;;6.22;;
48875;SDS011;34689;51.644;5.618;2023-02-21T11:54:30;9.20;;;4.63;;
48875;SDS011;34689;51.644;5.618;2023-02-21T11:59:32;12.43;;;4.63;;
48875;SDS011;34689;51.644;5.618;2023-02-21T12:13:14;10.13;;;3.80;;
48875;SDS011;34689;51.644;5.618;2023-02-21T12:37:29;11.77;;;5.57;;
48875;SDS011;34689;51.644;5.618;2023-02-21T12:46:06;11.10;;;4.50;;
48875;SDS011;34689;51.644;5.618;2023-02-21T12:51:18;8.88;;;4.25;;
48875;SDS011;34689;51.644;5.618;2023-02-21T12:53:51;8.75;;;3.55;;
48875;SDS011;34689;51.644;5.618;2023-02-21T12:56:30;11.07;;;4.05;;
48875;SDS011;34689;51.644;5.618;2023-02-21T12:59:14;9.65;;;3.90;;
48875;SDS011;34689;51.644;5.618;2023-02-21T13:01:52;8.93;;;3.67;;
48875;SDS011;34689;51.644;5.618;2023-02-21T13:04:31;8.10;;;3.47;;
48875;SDS011;34689;51.644;5.618;2023-02-21T13:10:02;6.75;;;3.47;;
48875;SDS011;34689;51.644;5.618;2023-02-21T13:12:35;5.82;;;2.90;;
48875;SDS011;34689;51.644;5.618;2023-02-21T13:15:15;9.00;;;3.95;;
48875;SDS011;34689;51.644;5.618;2023-02-21T13:20:43;6.82;;;3.38;;
48875;SDS011;34689;51.644;5.618;2023-02-21T13:23:17;5.47;;;3.10;;
48875;SDS011;34689;51.644;5.618;2023-02-21T13:28:29;5.57;;;2.30;;
48875;SDS011;34689;51.644;5.618;2023-02-21T13:31:01;7.75;;;3.03;;
48875;SDS011;34689;51.644;5.618;2023-02-21T13:33:34;4.65;;;2.50;;
48875;SDS011;34689;51.644;5.618;2023-02-21T13:44:32;9.80;;;3.38;;
48875;SDS011;34689;51.644;5.618;2023-02-21T14:05:25;5.20;;;2.67;;
48875;SDS011;34689;51.644;5.618;2023-02-21T14:10:44;5.65;;;2.65;;
48875;SDS011;34689;51.644;5.618;2023-02-21T14:13:20;4.25;;;2.00;;
48875;SDS011;34689;51.644;5.618;2023-02-21T14:16:35;4.85;;;2.40;;
48875;SDS011;34689;51.644;5.618;2023-02-21T14:21:35;5.80;;;2.88;;
48875;SDS011;34689;51.644;5.618;2023-02-21T14:24:05;4.03;;;1.95;;
48875;SDS011;34689;51.644;5.618;2023-02-21T14:48:14;6.82;;;2.47;;
48875;SDS011;34689;51.644;5.618;2023-02-21T14:56:37;6.03;;;2.60;;
48875;SDS011;34689;51.644;5.618;2023-02-21T14:59:17;4.72;;;1.92;;
48875;SDS011;34689;51.644;5.618;2023-02-21T15:05:03;4.75;;;2.47;;
48875;SDS011;34689;51.644;5.618;2023-02-21T15:10:25;4.68;;;2.17;;
48875;SDS011;34689;51.644;5.618;2023-02-21T15:12:57;5.25;;;2.28;;
48875;SDS011;34689;51.644;5.618;2023-02-21T15:20:32;4.47;;;2.05;;
48875;SDS011;34689;51.644;5.618;2023-02-21T15:23:01;5.82;;;2.17;;
48875;SDS011;34689;51.644;5.618;2023-02-21T15:25:36;6.47;;;3.03;;
48875;SDS011;34689;51.644;5.618;2023-02-21T15:28:04;6.15;;;2.67;;
48875;SDS011;34689;51.644;5.618;2023-02-21T15:30:35;7.47;;;2.97;;
48875;SDS011;34689;51.644;5.618;2023-02-21T15:33:15;6.40;;;2.67;;
48875;SDS011;34689;51.644;5.618;2023-02-21T15:35:50;7.47;;;3.60;;
48875;SDS011;34689;51.644;5.618;2023-02-21T15:38:28;8.85;;;3.20;;
48875;SDS011;34689;51.644;5.618;2023-02-21T15:41:08;7.53;;;3.55;;
48875;SDS011;34689;51.644;5.618;2023-02-21T15:44:52;6.20;;;2.65;;
48875;SDS011;34689;51.644;5.618;2023-02-21T15:49:21;6.40;;;3.13;;
48875;SDS011;34689;51.644;5.618;2023-02-21T15:51:55;7.53;;;3.30;;
48875;SDS011;34689;51.644;5.618;2023-02-21T15:54:32;8.50;;;2.92;;
48875;SDS011;34689;51.644;5.618;2023-02-21T15:59:36;7.57;;;3.42;;
48875;SDS011;34689;51.644;5.618;2023-02-21T16:02:10;9.93;;;4.15;;
48875;SDS011;34689;51.644;5.618;2023-02-21T16:04:45;10.90;;;4.43;;
48875;SDS011;34689;51.644;5.618;2023-02-21T16:07:29;8.38;;;3.15;;
48875;SDS011;34689;51.644;5.618;2023-02-21T16:09:59;8.13;;;3.33;;
48875;SDS011;34689;51.644;5.618;2023-02-21T16:15:44;10.18;;;4.03;;
48875;SDS011;34689;51.644;5.618;2023-02-21T16:17:56;8.75;;;3.72;;
48875;SDS011;34689;51.644;5.618;2023-02-21T16:20:34;11.82;;;4.47;;
48875;SDS011;34689;51.644;5.618;2023-02-21T16:28:44;10.02;;;4.60;;
48875;SDS011;34689;51.644;5.618;2023-02-21T16:31:23;9.85;;;3.75;;
48875;SDS011;34689;51.644;5.618;2023-02-21T16:33:54;15.05;;;5.85;;
48875;SDS011;34689;51.644;5.618;2023-02-21T16:36:27;7.10;;;3.75;;
48875;SDS011;34689;51.644;5.618;2023-02-21T16:38:55;10.45;;;3.95;;
48875;SDS011;34689;51.644;5.618;2023-02-21T16:41:21;9.65;;;4.43;;
48875;SDS011;34689;51.644;5.618;2023-02-21T16:43:47;8.77;;;3.60;;
48875;SDS011;34689;51.644;5.618;2023-02-21T16:46:15;7.55;;;3.60;;
48875;SDS011;34689;51.644;5.618;2023-02-21T16:48:51;10.98;;;4.43;;
48875;SDS011;34689;51.644;5.618;2023-02-21T16:51:17;9.48;;;4.28;;
48875;SDS011;34689;51.644;5.618;2023-02-21T16:53:44;10.63;;;4.47;;
48875;SDS011;34689;51.644;5.618;2023-02-21T16:56:10;9.50;;;4.18;;
48875;SDS011;34689;51.644;5.618;2023-02-21T16:58:38;7.22;;;3.80;;
48875;SDS011;34689;51.644;5.618;2023-02-21T17:01:14;8.93;;;4.07;;
48875;SDS011;34689;51.644;5.618;2023-02-21T17:03:50;7.38;;;3.53;;
48875;SDS011;34689;51.644;5.618;2023-02-21T17:06:16;11.23;;;4.45;;
48875;SDS011;34689;51.644;5.618;2023-02-21T17:08:45;14.13;;;5.10;;
48875;SDS011;34689;51.644;5.618;2023-02-21T17:11:10;6.88;;;3.17;;
48875;SDS011;34689;51.644;5.618;2023-02-21T17:13:36;10.45;;;5.07;;
48875;SDS011;34689;51.644;5.618;2023-02-21T17:16:02;15.30;;;5.35;;
48875;SDS011;34689;51.644;5.618;2023-02-21T17:18:28;12.88;;;5.70;;
48875;SDS011;34689;51.644;5.618;2023-02-21T17:20:55;12.43;;;4.63;;
48875;SDS011;34689;51.644;5.618;2023-02-21T17:23:22;12.60;;;5.18;;
48875;SDS011;34689;51.644;5.618;2023-02-21T17:25:47;9.75;;;5.03;;
48875;SDS011;34689;51.644;5.618;2023-02-21T17:28:13;7.65;;;3.45;;
48875;SDS011;34689;51.644;5.618;2023-02-21T17:30:38;7.03;;;3.33;;
48875;SDS011;34689;51.644;5.618;2023-02-21T17:33:04;10.30;;;4.53;;
48875;SDS011;34689;51.644;5.618;2023-02-21T17:35:32;4.57;;;2.50;;
48875;SDS011;34689;51.644;5.618;2023-02-21T17:37:58;6.25;;;2.60;;
48875;SDS011;34689;51.644;5.618;2023-02-21T17:40:26;9.02;;;3.45;;
48875;SDS011;34689;51.644;5.618;2023-02-21T17:42:52;11.02;;;4.72;;
48875;SDS011;34689;51.644;5.618;2023-02-21T17:45:19;9.88;;;4.28;;
48875;SDS011;34689;51.644;5.618;2023-02-21T17:47:46;8.85;;;3.90;;
48875;SDS011;34689;51.644;5.618;2023-02-21T17:50:12;8.48;;;3.22;;
48875;SDS011;34689;51.644;5.618;2023-02-21T17:52:38;10.23;;;4.78;;
48875;SDS011;34689;51.644;5.618;2023-02-21T17:55:04;13.07;;;4.97;;
48875;SDS011;34689;51.644;5.618;2023-02-21T17:57:35;11.43;;;5.32;;
48875;SDS011;34689;51.644;5.618;2023-02-21T18:00:05;14.85;;;6.68;;
48875;SDS011;34689;51.644;5.618;2023-02-21T18:02:34;15.40;;;6.30;;
48875;SDS011;34689;51.644;5.618;2023-02-21T18:05:00;14.32;;;5.45;;
48875;SDS011;34689;51.644;5.618;2023-02-21T18:07:26;10.43;;;5.03;;
48875;SDS011;34689;51.644;5.618;2023-02-21T18:09:56;13.45;;;5.68;;